Time;durP1;ratioP1;P1;durP2;ratioP2;P2;SDS_P1;SDS_P2;PMS_P1;PMS_P2;Temp;Humidity;BMP_temperature;BMP_pressure;BME280_temperature;BME280_humidity;BME280_pressure;Samples;Min_cycle;Max_cycle;Signal;HPM_P1;HPM_P2
2021/06/19 00:01:05;;;;;;;4.90;2.85;;;;;;;;;;5095569;28;20020;-59
2021/06/19 00:03:31;;;;;;;7.93;3.47;;;;;;;;;;5095109;28;20036;-59
2021/06/19 00:05:57;;;;;;;9.40;3.28;;;;;;;;;;5094540;28;20024;-59
2021/06/19 00:08:24;;;;;;;5.68;2.88;;;;;;;;;;5094253;28;20377;-59
2021/06/19 00:10:51;;;;;;;4.47;2.78;;;;;;;;;;5094605;28;20046;-59
2021/06/19 00:13:17;;;;;;;12.25;2.83;;;;;;;;;;5095087;28;20077;-59
2021/06/19 00:15:43;;;;;;;12.27;3.70;;;;;;;;;;5094507;28;20456;-59
2021/06/19 00:18:09;;;;;;;7.95;4.22;;;;;;;;;;5095235;28;20027;-59
2021/06/19 00:20:35;;;;;;;7.05;3.45;;;;;;;;;;5094475;28;20103;-59
2021/06/19 00:23:01;;;;;;;5.68;3.38;;;;;;;;;;5094502;28;20537;-59
2021/06/19 00:25:28;;;;;;;10.20;3.88;;;;;;;;;;5094371;28;20016;-59
2021/06/19 00:27:54;;;;;;;7.47;3.75;;;;;;;;;;5094509;28;20031;-58
2021/06/19 00:30:20;;;;;;;8.88;4.38;;;;;;;;;;5095079;28;20031;-59
2021/06/19 00:32:46;;;;;;;5.93;3.75;;;;;;;;;;5094337;28;20476;-59
2021/06/19 00:35:12;;;;;;;9.50;4.55;;;;;;;;;;5094224;28;20012;-58
2021/06/19 00:37:39;;;;;;;7.00;3.97;;;;;;;;;;5093866;28;20427;-58
2021/06/19 00:40:07;;;;;;;13.25;3.85;;;;;;;;;;5094087;28;20016;-58
2021/06/19 00:42:33;;;;;;;9.23;4.63;;;;;;;;;;5094104;28;20020;-59
2021/06/19 00:44:59;;;;;;;10.77;3.85;;;;;;;;;;5094304;28;20016;-59
2021/06/19 00:47:25;;;;;;;7.10;3.08;;;;;;;;;;5093965;28;20020;-58
2021/06/19 00:49:51;;;;;;;4.40;2.67;;;;;;;;;;5094648;28;20035;-58
2021/06/19 00:52:19;;;;;;;7.57;3.08;;;;;;;;;;5094299;28;20024;-58
2021/06/19 00:54:45;;;;;;;7.72;2.65;;;;;;;;;;5094179;28;20592;-58
2021/06/19 00:57:11;;;;;;;6.72;2.47;;;;;;;;;;5094274;28;20060;-59
2021/06/19 00:59:38;;;;;;;6.07;2.17;;;;;;;;;;5093837;28;20361;-58
2021/06/19 01:02:04;;;;;;;7.57;1.65;;;;;;;;;;5093802;28;20508;-59
2021/06/19 01:04:30;;;;;;;5.30;3.15;;;;;;;;;;5094093;28;20025;-59
2021/06/19 01:06:57;;;;;;;5.82;2.30;;;;;;;;;;5094069;28;20077;-58
2021/06/19 01:09:23;;;;;;;9.18;2.55;;;;;;;;;;5093305;28;20136;-59
2021/06/19 01:11:51;;;;;;;10.35;3.97;;;;;;;;;;5093379;28;20534;-59
2021/06/19 01:14:17;;;;;;;4.72;3.35;;;;;;;;;;5093657;28;20051;-59
2021/06/19 01:16:46;;;;;;;6.13;3.00;;;;;;;;;;5093952;28;20059;-59
2021/06/19 01:19:12;;;;;;;5.18;2.67;;;;;;;;;;5093927;28;20107;-59
2021/06/19 01:21:38;;;;;;;7.68;3.65;;;;;;;;;;5093998;28;20021;-59
2021/06/19 01:24:04;;;;;;;12.57;3.72;;;;;;;;;;5093650;28;20385;-59
2021/06/19 01:26:31;;;;;;;9.02;3.20;;;;;;;;;;5093626;28;20029;-59
2021/06/19 01:28:58;;;;;;;10.20;3.28;;;;;;;;;;5093485;28;20024;-59
2021/06/19 01:31:24;;;;;;;9.57;3.35;;;;;;;;;;5094163;28;20343;-59
2021/06/19 01:33:51;;;;;;;5.85;3.28;;;;;;;;;;5093893;28;20035;-59
2021/06/19 01:36:18;;;;;;;8.18;4.55;;;;;;;;;;5094119;28;20035;-59
2021/06/19 01:38:47;;;;;;;14.25;4.65;;;;;;;;;;5093819;28;20105;-59
2021/06/19 01:41:16;;;;;;;7.43;3.95;;;;;;;;;;5093144;28;20028;-59
2021/06/19 01:43:43;;;;;;;7.40;4.15;;;;;;;;;;5093523;28;20028;-59
2021/06/19 01:46:10;;;;;;;7.88;3.40;;;;;;;;;;5093973;28;20055;-59
2021/06/19 01:48:36;;;;;;;6.40;3.67;;;;;;;;;;5093397;28;20059;-59
2021/06/19 01:51:02;;;;;;;10.90;3.60;;;;;;;;;;5093498;28;20016;-59
2021/06/19 01:53:28;;;;;;;6.10;3.58;;;;;;;;;;5093642;28;20031;-59
2021/06/19 01:55:54;;;;;;;5.53;3.85;;;;;;;;;;5093419;28;20103;-59
2021/06/19 01:58:20;;;;;;;7.05;3.50;;;;;;;;;;5092958;28;20051;-59
2021/06/19 02:00:46;;;;;;;10.82;3.67;;;;;;;;;;5093284;28;20509;-59
2021/06/19 02:03:12;;;;;;;7.97;4.43;;;;;;;;;;5096046;28;20054;-59
2021/06/19 02:05:38;;;;;;;5.63;3.42;;;;;;;;;;5097057;28;20368;-59
2021/06/19 02:08:06;;;;;;;5.53;3.80;;;;;;;;;;5097465;28;20035;-59
2021/06/19 02:10:33;;;;;;;9.02;4.93;;;;;;;;;;5097597;28;20048;-58
2021/06/19 02:13:00;;;;;;;8.43;4.05;;;;;;;;;;5097158;28;20358;-59
2021/06/19 02:15:26;;;;;;;12.85;3.97;;;;;;;;;;5096866;28;20028;-59
2021/06/19 02:17:55;;;;;;;8.25;5.20;;;;;;;;;;5096755;28;20028;-59
2021/06/19 02:20:21;;;;;;;7.07;4.40;;;;;;;;;;5097035;28;20039;-59
2021/06/19 02:22:47;;;;;;;7.30;4.70;;;;;;;;;;5096783;28;20480;-59
2021/06/19 02:25:14;;;;;;;9.52;5.57;;;;;;;;;;5096972;28;20099;-59
2021/06/19 02:27:52;;;;;;;8.43;4.43;;;;;;;;;;5096457;28;20024;-59
2021/06/19 02:30:20;;;;;;;7.90;3.95;;;;;;;;;;5097123;28;20048;-59
2021/06/19 02:32:46;;;;;;;5.45;3.83;;;;;;;;;;5096878;28;20024;-59
2021/06/19 02:35:13;;;;;;;8.30;4.15;;;;;;;;;;5097020;28;20456;-59
2021/06/19 02:37:39;;;;;;;7.15;5.13;;;;;;;;;;5096686;28;20020;-59
2021/06/19 02:40:06;;;;;;;6.75;3.58;;;;;;;;;;5096699;28;20027;-59
2021/06/19 02:42:32;;;;;;;6.10;4.40;;;;;;;;;;5096556;28;20032;-59
2021/06/19 02:44:58;;;;;;;8.00;4.10;;;;;;;;;;5096319;28;20031;-59
2021/06/19 02:47:24;;;;;;;7.45;4.65;;;;;;;;;;5096170;28;20028;-59
2021/06/19 02:49:50;;;;;;;6.65;4.25;;;;;;;;;;5096191;28;20126;-58
2021/06/19 02:52:16;;;;;;;7.80;5.10;;;;;;;;;;5096494;28;20052;-58
2021/06/19 02:54:42;;;;;;;13.88;5.95;;;;;;;;;;5096437;28;20090;-59
2021/06/19 02:57:09;;;;;;;11.10;5.10;;;;;;;;;;5096357;28;20031;-59
2021/06/19 02:59:35;;;;;;;7.93;4.97;;;;;;;;;;5095969;28;20028;-59
2021/06/19 03:02:01;;;;;;;10.25;4.70;;;;;;;;;;5096281;28;20024;-59
2021/06/19 03:04:27;;;;;;;6.68;4.88;;;;;;;;;;5095977;28;20099;-59
2021/06/19 03:06:53;;;;;;;12.23;5.30;;;;;;;;;;5096381;28;20112;-59
2021/06/19 03:09:19;;;;;;;8.82;4.35;;;;;;;;;;5095343;28;20051;-59
2021/06/19 03:11:45;;;;;;;6.05;5.13;;;;;;;;;;5096052;28;20114;-59
2021/06/19 03:14:15;;;;;;;8.00;5.72;;;;;;;;;;5094754;28;20028;-58
2021/06/19 03:16:41;;;;;;;;;;;;;;;;;;5096969;28;20020;-58
2021/06/19 03:19:09;;;;;;;11.02;5.00;;;;;;;;;;5096161;28;19926;-59
2021/06/19 03:21:35;;;;;;;5.97;4.68;;;;;;;;;;5095907;28;20047;-58
2021/06/19 03:24:01;;;;;;;13.25;6.70;;;;;;;;;;5095213;28;20055;-58
2021/06/19 03:26:27;;;;;;;11.18;5.97;;;;;;;;;;5094467;28;20020;-58
2021/06/19 03:28:53;;;;;;;9.77;5.95;;;;;;;;;;5095857;28;20028;-59
2021/06/19 03:31:19;;;;;;;9.65;5.85;;;;;;;;;;5095420;28;20035;-59
2021/06/19 03:33:45;;;;;;;10.38;5.78;;;;;;;;;;5095882;28;20031;-59
2021/06/19 03:36:11;;;;;;;10.18;5.93;;;;;;;;;;5095807;28;20327;-58
2021/06/19 03:38:37;;;;;;;7.03;4.60;;;;;;;;;;5095262;28;20028;-58
2021/06/19 03:41:03;;;;;;;10.13;5.15;;;;;;;;;;5096092;28;20020;-58
2021/06/19 03:43:29;;;;;;;11.63;5.75;;;;;;;;;;5095194;28;20024;-58
2021/06/19 03:45:55;;;;;;;10.43;6.95;;;;;;;;;;5095161;28;20028;-58
2021/06/19 03:48:21;;;;;;;7.47;5.53;;;;;;;;;;5094510;28;20032;-58
2021/06/19 03:50:47;;;;;;;13.13;5.80;;;;;;;;;;5095637;28;20408;-58
2021/06/19 03:53:13;;;;;;;8.80;5.72;;;;;;;;;;5094748;28;20358;-58
2021/06/19 03:55:39;;;;;;;8.25;6.05;;;;;;;;;;5094952;28;20023;-58
2021/06/19 03:58:05;;;;;;;8.57;5.53;;;;;;;;;;5094126;28;20116;-58
2021/06/19 04:00:31;;;;;;;7.90;5.40;;;;;;;;;;5094912;28;20098;-58
2021/06/19 04:03:00;;;;;;;9.48;5.25;;;;;;;;;;5095157;28;20075;-58
2021/06/19 04:05:26;;;;;;;9.77;5.97;;;;;;;;;;5095088;28;20060;-59
2021/06/19 04:07:53;;;;;;;10.52;6.05;;;;;;;;;;5094648;28;20024;-59
2021/06/19 04:10:19;;;;;;;11.18;6.18;;;;;;;;;;5095280;28;20052;-58
2021/06/19 04:12:45;;;;;;;9.82;6.13;;;;;;;;;;5094664;28;20099;-59
2021/06/19 04:15:12;;;;;;;16.67;6.25;;;;;;;;;;5094892;28;20068;-58
2021/06/19 04:17:39;;;;;;;11.07;6.10;;;;;;;;;;5094564;28;20461;-58
2021/06/19 04:20:06;;;;;;;13.48;6.57;;;;;;;;;;5094558;28;20073;-58
2021/06/19 04:22:32;;;;;;;10.32;6.70;;;;;;;;;;5094547;28;20020;-58
2021/06/19 04:24:58;;;;;;;9.60;5.95;;;;;;;;;;5094117;28;20346;-59
2021/06/19 04:27:24;;;;;;;12.95;5.88;;;;;;;;;;5094388;28;20031;-58
2021/06/19 04:29:50;;;;;;;9.40;6.38;;;;;;;;;;5094301;28;20214;-58
2021/06/19 04:32:18;;;;;;;11.60;6.30;;;;;;;;;;5094963;28;20074;-58
2021/06/19 04:34:44;;;;;;;8.18;6.05;;;;;;;;;;5094226;28;20528;-58
2021/06/19 04:37:11;;;;;;;10.50;6.50;;;;;;;;;;5094197;28;20028;-59
2021/06/19 04:39:39;;;;;;;9.70;6.47;;;;;;;;;;5094480;28;20030;-59
2021/06/19 04:42:07;;;;;;;6.68;5.57;;;;;;;;;;5094758;28;20432;-58
2021/06/19 04:45:02;;;;;;;10.98;6.10;;;;;;;;;;5094140;28;20019;-59
2021/06/19 04:47:28;;;;;;;10.85;6.55;;;;;;;;;;5094209;28;20052;-59
2021/06/19 04:49:54;;;;;;;6.50;5.53;;;;;;;;;;5094267;28;20036;-59
2021/06/19 04:52:21;;;;;;;13.00;6.88;;;;;;;;;;5094394;28;20024;-59
2021/06/19 04:54:47;;;;;;;8.18;5.63;;;;;;;;;;5093985;28;20444;-58
2021/06/19 04:57:13;;;;;;;6.82;5.53;;;;;;;;;;5093658;28;20024;-59
2021/06/19 04:59:39;;;;;;;8.95;6.03;;;;;;;;;;5093995;28;20096;-59
2021/06/19 05:02:05;;;;;;;9.45;6.03;;;;;;;;;;5094512;28;20509;-59
2021/06/19 05:04:31;;;;;;;9.73;6.05;;;;;;;;;;5093892;28;20035;-59
2021/06/19 05:06:57;;;;;;;9.23;6.53;;;;;;;;;;5093831;28;20024;-59
2021/06/19 05:09:23;;;;;;;8.02;6.00;;;;;;;;;;5093782;28;20044;-59
2021/06/19 05:11:49;;;;;;;9.20;5.47;;;;;;;;;;5093824;28;20457;-59
2021/06/19 05:14:15;;;;;;;9.15;6.28;;;;;;;;;;5093780;28;20031;-59
2021/06/19 05:16:41;;;;;;;7.55;6.18;;;;;;;;;;5093716;28;20081;-59
2021/06/19 05:19:07;;;;;;;9.43;5.65;;;;;;;;;;5093544;28;20392;-59
2021/06/19 05:21:33;;;;;;;9.70;6.07;;;;;;;;;;5093999;28;20458;-59
2021/06/19 05:23:59;;;;;;;11.18;5.82;;;;;;;;;;5093779;28;20027;-59
2021/06/19 05:26:25;;;;;;;9.13;6.40;;;;;;;;;;5093708;28;20450;-59
2021/06/19 05:28:51;;;;;;;9.55;5.68;;;;;;;;;;5093626;28;20103;-59
2021/06/19 05:31:17;;;;;;;7.07;5.57;;;;;;;;;;5093675;28;20032;-59
2021/06/19 05:33:43;;;;;;;7.57;5.82;;;;;;;;;;5094200;28;20095;-59
2021/06/19 05:36:09;;;;;;;10.80;6.72;;;;;;;;;;5093651;28;20400;-59
2021/06/19 05:38:35;;;;;;;15.02;6.13;;;;;;;;;;5096893;28;20020;-59
2021/06/19 05:41:01;;;;;;;8.63;6.38;;;;;;;;;;5097323;28;20496;-59
2021/06/19 05:43:27;;;;;;;10.27;6.80;;;;;;;;;;5097541;28;20035;-59
2021/06/19 05:45:53;;;;;;;8.98;6.05;;;;;;;;;;5097425;28;20032;-59
2021/06/19 05:48:19;;;;;;;8.80;6.15;;;;;;;;;;5096971;28;20386;-59
2021/06/19 05:50:46;;;;;;;7.40;5.57;;;;;;;;;;5097358;28;20036;-59
2021/06/19 05:53:12;;;;;;;8.95;6.00;;;;;;;;;;5097335;28;20027;-59
2021/06/19 05:55:38;;;;;;;8.40;5.43;;;;;;;;;;5096409;28;20027;-59
2021/06/19 05:58:04;;;;;;;7.47;5.88;;;;;;;;;;5097527;28;20458;-59
2021/06/19 06:00:30;;;;;;;12.40;5.78;;;;;;;;;;5097379;28;20030;-59
2021/06/19 06:02:56;;;;;;;8.30;6.25;;;;;;;;;;5097743;28;20030;-59
2021/06/19 06:05:22;;;;;;;15.52;6.88;;;;;;;;;;5097106;28;20016;-59
2021/06/19 06:07:48;;;;;;;9.43;5.82;;;;;;;;;;5097758;28;20024;-59
2021/06/19 06:10:14;;;;;;;10.70;5.45;;;;;;;;;;5097466;28;20484;-59
2021/06/19 06:12:40;;;;;;;10.48;6.25;;;;;;;;;;5096687;28;20465;-59
2021/06/19 06:15:08;;;;;;;5.95;5.28;;;;;;;;;;5096894;28;20157;-59
2021/06/19 06:17:34;;;;;;;8.15;4.95;;;;;;;;;;5097106;28;20024;-59
2021/06/19 06:20:00;;;;;;;9.88;5.45;;;;;;;;;;5096887;28;20370;-59
2021/06/19 06:22:26;;;;;;;6.97;5.55;;;;;;;;;;5097619;28;20076;-59
2021/06/19 06:24:52;;;;;;;8.95;6.55;;;;;;;;;;5096735;28;20024;-59
2021/06/19 06:27:18;;;;;;;8.05;5.72;;;;;;;;;;5096609;28;20027;-60
2021/06/19 06:29:44;;;;;;;5.43;4.90;;;;;;;;;;5096811;28;20119;-59
2021/06/19 06:32:10;;;;;;;9.63;5.80;;;;;;;;;;5097099;28;20637;-59
2021/06/19 06:34:36;;;;;;;6.63;4.82;;;;;;;;;;5096738;28;20044;-60
2021/06/19 06:37:02;;;;;;;9.75;5.15;;;;;;;;;;5096535;28;20023;-59
2021/06/19 06:39:28;;;;;;;8.75;5.07;;;;;;;;;;5096478;28;20024;-60
2021/06/19 06:41:55;;;;;;;7.05;4.82;;;;;;;;;;5096474;28;20365;-60
2021/06/19 06:44:21;;;;;;;9.15;4.22;;;;;;;;;;5096303;28;20086;-60
2021/06/19 06:46:47;;;;;;;9.55;5.05;;;;;;;;;;5096234;28;20016;-58
2021/06/19 06:49:13;;;;;;;7.85;4.55;;;;;;;;;;5096632;28;20115;-58
2021/06/19 06:51:39;;;;;;;6.00;4.40;;;;;;;;;;5096290;28;20149;-58
2021/06/19 06:54:06;;;;;;;6.57;4.60;;;;;;;;;;5096136;28;20028;-58
2021/06/19 06:56:32;;;;;;;6.53;4.40;;;;;;;;;;5094714;28;20020;-58
2021/06/19 06:58:58;;;;;;;6.95;4.80;;;;;;;;;;5096616;28;20027;-58
2021/06/19 07:01:24;;;;;;;8.70;4.28;;;;;;;;;;5096872;28;20156;-58
2021/06/19 07:03:54;;;;;;;7.13;4.82;;;;;;;;;;5096297;28;20111;-58
2021/06/19 07:06:20;;;;;;;5.97;4.15;;;;;;;;;;5096774;28;20055;-59
2021/06/19 07:08:46;;;;;;;6.28;4.50;;;;;;;;;;5095598;28;20051;-60
2021/06/19 07:11:12;;;;;;;6.20;4.40;;;;;;;;;;5095446;28;20048;-59
2021/06/19 07:13:38;;;;;;;6.55;4.65;;;;;;;;;;5095782;28;20024;-59
2021/06/19 07:16:04;;;;;;;6.65;4.72;;;;;;;;;;5095894;28;20024;-59
2021/06/19 07:18:30;;;;;;;4.88;3.72;;;;;;;;;;5096051;28;20032;-59
2021/06/19 07:20:56;;;;;;;7.95;3.92;;;;;;;;;;5095869;28;20050;-59
2021/06/19 07:23:24;;;;;;;6.25;4.15;;;;;;;;;;5096031;28;20017;-59
2021/06/19 07:25:52;;;;;;;7.82;4.28;;;;;;;;;;5095521;28;20373;-60
2021/06/19 07:28:17;;;;;;;5.72;5.20;;;;;;;;;;5095282;28;20080;-60
2021/06/19 07:30:43;;;;;;;12.68;4.35;;;;;;;;;;5095441;28;20036;-60
2021/06/19 07:33:09;;;;;;;7.47;4.70;;;;;;;;;;5095644;28;20442;-60
2021/06/19 07:35:35;;;;;;;6.60;4.82;;;;;;;;;;5094022;28;20495;-59
2021/06/19 07:38:01;;;;;;;5.22;4.40;;;;;;;;;;5095310;28;20051;-59
2021/06/19 07:40:27;;;;;;;9.52;5.57;;;;;;;;;;5096009;28;20066;-60
2021/06/19 07:42:53;;;;;;;5.60;4.97;;;;;;;;;;5095282;28;20477;-60
2021/06/19 07:45:19;;;;;;;11.05;4.80;;;;;;;;;;5095554;28;20016;-60
2021/06/19 07:47:45;;;;;;;7.72;4.72;;;;;;;;;;5094919;28;20024;-60
2021/06/19 07:50:11;;;;;;;6.88;4.78;;;;;;;;;;5094665;28;20355;-60
2021/06/19 07:52:37;;;;;;;8.57;5.05;;;;;;;;;;5095320;28;20024;-59
2021/06/19 07:55:04;;;;;;;8.45;5.13;;;;;;;;;;5094952;28;20061;-60
2021/06/19 07:57:31;;;;;;;5.78;5.22;;;;;;;;;;5094715;28;20024;-60
2021/06/19 07:59:57;;;;;;;10.65;5.47;;;;;;;;;;5094138;28;20055;-60
2021/06/19 08:02:23;;;;;;;7.78;4.72;;;;;;;;;;5094781;28;20020;-60
2021/06/19 08:04:49;;;;;;;8.00;4.85;;;;;;;;;;5094751;28;20089;-60
2021/06/19 08:07:15;;;;;;;7.95;5.85;;;;;;;;;;5094376;28;20373;-60
2021/06/19 08:09:41;;;;;;;6.65;5.45;;;;;;;;;;5094746;28;20059;-60
2021/06/19 08:12:08;;;;;;;11.73;5.07;;;;;;;;;;5094630;28;20369;-60
2021/06/19 08:14:34;;;;;;;6.13;4.43;;;;;;;;;;5094573;28;20024;-60
2021/06/19 08:17:04;;;;;;;6.78;5.32;;;;;;;;;;5094499;28;20445;-60
2021/06/19 08:19:30;;;;;;;9.77;5.43;;;;;;;;;;5094908;28;20405;-60
2021/06/19 08:21:56;;;;;;;8.40;5.45;;;;;;;;;;5095045;28;20102;-60
2021/06/19 08:24:22;;;;;;;6.60;5.45;;;;;;;;;;5094486;28;20474;-60
2021/06/19 08:26:48;;;;;;;9.63;6.50;;;;;;;;;;5095180;28;20491;-60
2021/06/19 08:29:14;;;;;;;11.07;6.28;;;;;;;;;;5094279;28;20468;-60
2021/06/19 08:31:41;;;;;;;9.77;6.15;;;;;;;;;;5094419;28;20385;-60
2021/06/19 08:34:08;;;;;;;10.18;5.57;;;;;;;;;;5094850;28;20020;-60
2021/06/19 08:36:34;;;;;;;8.82;5.55;;;;;;;;;;5094397;28;20454;-60
2021/06/19 08:39:00;;;;;;;9.23;5.78;;;;;;;;;;5094185;28;20043;-60
2021/06/19 08:41:27;;;;;;;9.73;6.20;;;;;;;;;;5095077;28;20027;-60
2021/06/19 08:43:53;;;;;;;11.45;6.22;;;;;;;;;;5094171;28;20377;-60
2021/06/19 08:46:21;;;;;;;6.40;5.70;;;;;;;;;;5094678;28;20027;-60
2021/06/19 08:48:48;;;;;;;8.70;5.72;;;;;;;;;;5094518;28;20068;-60
2021/06/19 08:51:14;;;;;;;6.88;6.07;;;;;;;;;;5094323;28;20032;-60
2021/06/19 08:53:40;;;;;;;10.13;6.35;;;;;;;;;;5092634;28;20032;-60
2021/06/19 08:56:06;;;;;;;6.15;5.53;;;;;;;;;;5093838;28;20023;-60
2021/06/19 08:58:32;;;;;;;8.07;6.55;;;;;;;;;;5093789;28;20031;-60
2021/06/19 09:00:58;;;;;;;8.40;7.18;;;;;;;;;;5094299;28;20070;-60
2021/06/19 09:03:25;;;;;;;10.88;5.70;;;;;;;;;;5093893;28;20449;-60
2021/06/19 09:05:52;;;;;;;6.50;4.97;;;;;;;;;;5093520;28;20073;-60
2021/06/19 09:08:19;;;;;;;9.32;5.82;;;;;;;;;;5093831;28;20034;-60
2021/06/19 09:10:45;;;;;;;7.50;5.55;;;;;;;;;;5094406;28;20054;-60
2021/06/19 09:13:17;;;;;;;7.63;5.90;;;;;;;;;;5098114;28;20024;-60
2021/06/19 09:15:45;;;;;;;8.70;5.03;;;;;;;;;;5098521;28;20414;-60
2021/06/19 09:18:30;;;;;;;9.50;5.72;;;;;;;;;;5097958;28;20381;-60
2021/06/19 09:21:00;;;;;;;7.13;5.50;;;;;;;;;;5098206;28;20454;-60
2021/06/19 09:23:26;;;;;;;;;;;;;;;;;;5098303;28;20028;-59
2021/06/19 09:26:11;;;;;;;12.07;6.32;;;;;;;;;;5098117;28;19904;-59
2021/06/19 09:28:56;;;;;;;11.45;5.60;;;;;;;;;;5098014;28;20028;-58
2021/06/19 09:31:41;;;;;;;5.78;4.82;;;;;;;;;;5097784;28;20058;-58
2021/06/19 09:34:07;;;;;;;5.93;5.20;;;;;;;;;;5097667;28;20020;-60
2021/06/19 09:36:36;;;;;;;5.18;4.45;;;;;;;;;;5097687;28;20016;-60
2021/06/19 09:39:03;;;;;;;5.50;4.85;;;;;;;;;;5097629;28;20028;-59
2021/06/19 09:41:37;;;;;;;9.68;5.38;;;;;;;;;;5097935;28;20408;-59
2021/06/19 09:44:03;;;;;;;9.40;5.10;;;;;;;;;;5097760;28;20102;-60
2021/06/19 09:46:29;;;;;;;5.63;4.95;;;;;;;;;;5096458;28;20020;-60
2021/06/19 09:49:11;;;;;;;5.95;5.30;;;;;;;;;;5095711;28;20479;-60
2021/06/19 09:51:44;;;;;;;9.07;5.28;;;;;;;;;;5097738;28;20028;-60
2021/06/19 09:54:10;;;;;;;7.88;6.10;;;;;;;;;;5098232;28;20024;-60
2021/06/19 09:56:45;;;;;;;10.05;5.10;;;;;;;;;;5097019;28;20020;-60
2021/06/19 09:59:18;;;;;;;7.43;5.65;;;;;;;;;;5097165;28;20031;-60
2021/06/19 10:01:44;;;;;;;7.65;5.32;;;;;;;;;;5097511;28;20020;-60
2021/06/19 10:04:12;;;;;;;9.30;5.85;;;;;;;;;;5097063;28;20077;-60
2021/06/19 10:06:39;;;;;;;10.00;6.63;;;;;;;;;;5097566;28;20449;-60
2021/06/19 10:09:08;;;;;;;6.88;5.47;;;;;;;;;;5097037;28;20048;-60
2021/06/19 10:11:34;;;;;;;5.88;5.28;;;;;;;;;;5096822;28;20465;-60
2021/06/19 10:14:01;;;;;;;9.40;5.75;;;;;;;;;;5097085;28;20039;-60
2021/06/19 10:16:28;;;;;;;10.50;5.68;;;;;;;;;;5096976;28;20515;-59
2021/06/19 10:18:54;;;;;;;7.75;5.32;;;;;;;;;;5096820;28;20111;-59
2021/06/19 10:21:21;;;;;;;8.52;5.45;;;;;;;;;;5097301;28;20046;-59
2021/06/19 10:23:47;;;;;;;13.23;5.75;;;;;;;;;;5096089;28;20074;-59
2021/06/19 10:26:14;;;;;;;10.48;6.22;;;;;;;;;;5096717;28;20031;-59
2021/06/19 10:28:46;;;;;;;5.68;5.03;;;;;;;;;;5096572;28;20042;-59
2021/06/19 10:31:14;;;;;;;5.45;4.85;;;;;;;;;;5097100;28;20036;-59
2021/06/19 10:33:41;;;;;;;6.45;5.28;;;;;;;;;;5096539;28;20524;-59
2021/06/19 10:36:08;;;;;;;8.85;5.35;;;;;;;;;;5096546;28;20434;-59
2021/06/19 10:38:46;;;;;;;6.75;4.70;;;;;;;;;;5096514;28;20028;-59
2021/06/19 10:41:13;;;;;;;6.68;5.22;;;;;;;;;;5097010;28;20112;-60
2021/06/19 10:43:43;;;;;;;6.95;5.28;;;;;;;;;;5096378;28;20059;-60
2021/06/19 10:46:29;;;;;;;5.47;4.93;;;;;;;;;;5096343;28;20027;-60
2021/06/19 10:48:55;;;;;;;7.88;4.22;;;;;;;;;;5095763;28;20056;-60
2021/06/19 10:51:23;;;;;;;12.30;5.38;;;;;;;;;;5096587;28;20028;-60
2021/06/19 10:54:07;;;;;;;6.78;4.72;;;;;;;;;;5096074;28;20024;-60
2021/06/19 10:56:44;;;;;;;10.82;5.80;;;;;;;;;;5096110;28;20411;-60
2021/06/19 10:59:17;;;;;;;9.70;5.18;;;;;;;;;;5096602;28;20089;-60
2021/06/19 11:01:43;;;;;;;7.90;4.70;;;;;;;;;;5096363;28;20016;-60
2021/06/19 11:04:29;;;;;;;10.77;5.80;;;;;;;;;;5096176;28;20343;-60
2021/06/19 11:06:55;;;;;;;7.40;4.68;;;;;;;;;;5095943;28;20063;-60
2021/06/19 11:09:35;;;;;;;13.18;4.95;;;;;;;;;;5095983;28;20138;-60
2021/06/19 11:12:06;;;;;;;7.22;5.60;;;;;;;;;;5096734;28;20074;-60
2021/06/19 11:14:41;;;;;;;7.18;4.75;;;;;;;;;;5096334;28;20035;-60
2021/06/19 11:17:08;;;;;;;13.10;6.82;;;;;;;;;;5095742;28;20020;-60
2021/06/19 11:19:39;;;;;;;11.88;4.97;;;;;;;;;;5095733;28;20032;-60
2021/06/19 11:22:24;;;;;;;6.05;5.20;;;;;;;;;;5095771;28;20020;-60
2021/06/19 11:25:08;;;;;;;8.23;5.40;;;;;;;;;;5095614;28;20058;-60
2021/06/19 11:27:52;;;;;;;6.57;4.47;;;;;;;;;;5095529;28;20028;-60
2021/06/19 11:30:34;;;;;;;8.05;4.45;;;;;;;;;;5095527;28;20081;-60
2021/06/19 11:33:21;;;;;;;5.88;4.85;;;;;;;;;;5095518;28;20024;-60
2021/06/19 11:35:53;;;;;;;9.68;4.55;;;;;;;;;;5094903;28;20341;-60
2021/06/19 11:38:20;;;;;;;8.52;5.05;;;;;;;;;;5095722;28;20032;-61
2021/06/19 11:40:47;;;;;;;6.72;4.60;;;;;;;;;;5095328;28;20024;-60
2021/06/19 11:43:13;;;;;;;7.25;4.15;;;;;;;;;;5095848;28;20012;-60
2021/06/19 11:45:40;;;;;;;6.93;4.53;;;;;;;;;;5095561;28;20020;-60
2021/06/19 11:48:08;;;;;;;7.88;4.22;;;;;;;;;;5095176;28;20024;-60
2021/06/19 11:50:35;;;;;;;6.60;4.18;;;;;;;;;;5095575;28;20032;-60
2021/06/19 11:53:19;;;;;;;10.98;4.72;;;;;;;;;;5095035;28;20030;-60
2021/06/19 11:55:45;;;;;;;10.65;4.70;;;;;;;;;;5094700;28;20381;-60
2021/06/19 11:58:11;;;;;;;5.22;4.00;;;;;;;;;;5094940;28;20028;-60
2021/06/19 12:00:52;;;;;;;6.20;3.88;;;;;;;;;;5094789;28;20027;-60
2021/06/19 12:03:22;;;;;;;13.43;4.38;;;;;;;;;;5094895;28;20020;-60
2021/06/19 12:05:48;;;;;;;9.90;3.65;;;;;;;;;;5095491;28;20117;-60
2021/06/19 12:08:14;;;;;;;5.80;3.88;;;;;;;;;;5094389;28;20060;-60
2021/06/19 12:10:40;;;;;;;10.13;3.45;;;;;;;;;;5094283;28;20071;-60
2021/06/19 12:13:07;;;;;;;6.50;3.08;;;;;;;;;;5095012;28;20445;-60
2021/06/19 12:15:34;;;;;;;7.20;3.67;;;;;;;;;;5094976;28;20020;-60
2021/06/19 12:18:01;;;;;;;7.07;3.70;;;;;;;;;;5094652;28;20416;-60
2021/06/19 12:20:27;;;;;;;8.05;3.13;;;;;;;;;;5095128;28;20027;-61
2021/06/19 12:22:54;;;;;;;6.55;2.88;;;;;;;;;;5094590;28;20056;-60
2021/06/19 12:25:29;;;;;;;7.00;3.42;;;;;;;;;;5094979;28;20450;-60
2021/06/19 12:27:55;;;;;;;7.35;3.60;;;;;;;;;;5093950;28;20024;-61
2021/06/19 12:30:21;;;;;;;8.40;3.10;;;;;;;;;;5094365;28;20465;-60
2021/06/19 12:32:48;;;;;;;8.00;4.10;;;;;;;;;;5094735;28;20098;-60
2021/06/19 12:35:15;;;;;;;10.13;4.03;;;;;;;;;;5094504;28;20027;-61
2021/06/19 12:37:43;;;;;;;11.52;4.22;;;;;;;;;;5094286;28;20077;-60
2021/06/19 12:40:12;;;;;;;6.28;3.60;;;;;;;;;;5094523;28;20032;-61
2021/06/19 12:42:48;;;;;;;7.72;5.00;;;;;;;;;;5094547;28;20020;-61
2021/06/19 12:45:14;;;;;;;5.13;3.60;;;;;;;;;;5093956;28;20077;-61
2021/06/19 12:47:44;;;;;;;5.95;3.53;;;;;;;;;;5094504;28;20016;-61
2021/06/19 12:50:11;;;;;;;7.97;3.83;;;;;;;;;;5094067;28;20111;-61
2021/06/19 12:52:54;;;;;;;6.88;3.58;;;;;;;;;;5094425;28;20047;-61
2021/06/19 12:55:20;;;;;;;9.32;2.92;;;;;;;;;;5094379;28;20016;-60
2021/06/19 12:57:46;;;;;;;9.02;3.42;;;;;;;;;;5093631;28;20047;-60
2021/06/19 13:00:12;;;;;;;5.43;4.15;;;;;;;;;;5093935;28;20056;-61
2021/06/19 13:02:57;;;;;;;6.75;3.83;;;;;;;;;;5094517;28;20016;-61
2021/06/19 13:05:24;;;;;;;9.57;3.75;;;;;;;;;;5094193;28;20028;-60
2021/06/19 13:07:50;;;;;;;9.80;4.18;;;;;;;;;;5094610;28;20381;-61
2021/06/19 13:10:34;;;;;;;9.13;4.93;;;;;;;;;;5094699;28;20412;-61
2021/06/19 13:13:00;;;;;;;8.35;4.05;;;;;;;;;;5093823;28;20138;-61
2021/06/19 13:15:27;;;;;;;4.30;3.38;;;;;;;;;;5093788;28;20066;-60
2021/06/19 13:17:53;;;;;;;9.13;4.82;;;;;;;;;;5093698;28;20112;-61
2021/06/19 13:20:25;;;;;;;6.10;4.20;;;;;;;;;;5094288;28;20021;-61
2021/06/19 13:23:01;;;;;;;5.55;3.22;;;;;;;;;;5094011;28;20024;-61
2021/06/19 13:25:47;;;;;;;4.60;3.33;;;;;;;;;;5093682;28;20122;-61
2021/06/19 13:28:13;;;;;;;9.80;4.88;;;;;;;;;;5094105;28;20032;-61
2021/06/19 13:30:39;;;;;;;6.28;3.83;;;;;;;;;;5093712;28;20530;-61
2021/06/19 13:33:05;;;;;;;5.80;3.65;;;;;;;;;;5093734;28;20118;-61
2021/06/19 13:35:44;;;;;;;7.07;4.20;;;;;;;;;;5093378;28;20020;-61
2021/06/19 13:38:10;;;;;;;11.85;3.80;;;;;;;;;;5094211;28;20024;-60
2021/06/19 13:40:36;;;;;;;6.50;4.65;;;;;;;;;;5094420;28;20020;-61
2021/06/19 13:43:02;;;;;;;5.82;3.78;;;;;;;;;;5094134;28;20402;-61
2021/06/19 13:45:28;;;;;;;10.70;4.15;;;;;;;;;;5094120;28;20020;-61
2021/06/19 13:47:54;;;;;;;7.68;4.70;;;;;;;;;;5093373;28;20027;-61
2021/06/19 13:50:20;;;;;;;6.60;3.40;;;;;;;;;;5093377;28;20024;-60
2021/06/19 13:52:48;;;;;;;5.22;3.72;;;;;;;;;;5093965;28;20464;-61
2021/06/19 13:55:15;;;;;;;9.00;4.90;;;;;;;;;;5093951;28;20020;-61
2021/06/19 13:57:41;;;;;;;5.28;3.97;;;;;;;;;;5093865;28;20024;-61
2021/06/19 14:00:08;;;;;;;5.97;4.00;;;;;;;;;;5097283;28;20093;-61
2021/06/19 14:02:34;;;;;;;7.75;4.25;;;;;;;;;;5097609;28;20059;-61
2021/06/19 14:05:01;;;;;;;6.05;3.70;;;;;;;;;;5097136;28;20028;-61
2021/06/19 14:07:27;;;;;;;13.98;4.43;;;;;;;;;;5097475;28;20166;-60
2021/06/19 14:09:53;;;;;;;9.82;4.88;;;;;;;;;;5096910;28;20075;-61
2021/06/19 14:12:19;;;;;;;7.68;4.63;;;;;;;;;;5097748;28;20032;-61
2021/06/19 14:14:45;;;;;;;6.45;4.55;;;;;;;;;;5097225;28;20104;-61
2021/06/19 14:17:11;;;;;;;9.23;5.00;;;;;;;;;;5096966;28;20416;-60
2021/06/19 14:19:37;;;;;;;9.45;4.10;;;;;;;;;;5097453;28;20028;-61
2021/06/19 14:22:03;;;;;;;6.95;4.72;;;;;;;;;;5097395;28;20070;-61
2021/06/19 14:24:29;;;;;;;4.82;3.90;;;;;;;;;;5097108;28;20458;-61
2021/06/19 14:27:04;;;;;;;12.50;4.70;;;;;;;;;;5096802;28;20020;-60
2021/06/19 14:29:30;;;;;;;6.72;3.92;;;;;;;;;;5097491;28;20113;-61
2021/06/19 14:31:56;;;;;;;5.47;4.40;;;;;;;;;;5097022;28;20078;-61
2021/06/19 14:34:23;;;;;;;7.40;4.95;;;;;;;;;;5096916;28;20024;-61
2021/06/19 14:36:50;;;;;;;6.25;4.55;;;;;;;;;;5096867;28;20563;-61
2021/06/19 14:39:16;;;;;;;8.48;5.53;;;;;;;;;;5096510;28;20024;-61
2021/06/19 14:41:42;;;;;;;6.22;4.50;;;;;;;;;;5096500;28;20028;-61
2021/06/19 14:44:08;;;;;;;6.35;4.53;;;;;;;;;;5096462;28;20073;-61